createdAt,value
2022-09-15T00:00:32.125Z,99.90
2022-09-15T00:02:59.089Z,99.90
2022-09-15T00:05:26.154Z,99.90
2022-09-15T00:07:54.970Z,99.90
2022-09-15T00:10:22.004Z,99.90
2022-09-15T00:12:48.979Z,99.90
2022-09-15T00:15:16.974Z,99.90
2022-09-15T00:17:49.988Z,99.90
2022-09-15T00:20:18.771Z,99.90
2022-09-15T00:22:45.629Z,99.90
2022-09-15T00:25:13.267Z,99.90
2022-09-15T00:27:40.271Z,99.90
2022-09-15T00:30:07.985Z,99.90
2022-09-15T00:32:35.445Z,99.90
2022-09-15T00:35:02.347Z,99.90
2022-09-15T00:37:29.304Z,99.90
2022-09-15T00:39:56.284Z,99.90
2022-09-15T01:10:04.364Z,99.90
2022-09-15T01:12:31.488Z,99.90
2022-09-15T01:15:01.583Z,99.90
2022-09-15T01:17:43.365Z,99.90
2022-09-15T01:20:19.683Z,99.90
2022-09-15T01:25:47.344Z,99.90
2022-09-15T01:28:56.227Z,99.90
2022-09-15T01:32:00.210Z,99.90
2022-09-15T01:34:33.930Z,99.90
2022-09-15T01:37:09.747Z,99.90
2022-09-15T01:39:43.765Z,99.90
2022-09-15T01:42:14.892Z,99.90
2022-09-15T01:44:52.183Z,99.90
2022-09-15T01:47:21.166Z,99.90
2022-09-15T01:50:19.094Z,99.90
2022-09-15T01:52:50.015Z,99.90
2022-09-15T01:55:21.601Z,99.90
2022-09-15T01:57:48.890Z,99.90
2022-09-15T02:00:16.098Z,99.90
2022-09-15T02:02:57.581Z,99.90
2022-09-15T02:05:48.903Z,99.90
2022-09-15T02:08:26.032Z,99.90
2022-09-15T02:11:14.821Z,99.90
2022-09-15T02:14:12.482Z,99.90
2022-09-15T02:16:45.635Z,99.90
2022-09-15T02:19:20.394Z,99.90
2022-09-15T02:22:10.661Z,99.90
2022-09-15T02:24:43.308Z,99.90
2022-09-15T02:27:16.234Z,99.90
2022-09-15T02:29:46.968Z,99.90
2022-09-15T02:32:17.760Z,99.90
2022-09-15T02:34:50.562Z,99.90
2022-09-15T02:37:21.445Z,99.90
2022-09-15T02:39:55.015Z,99.90
2022-09-15T02:42:32.358Z,99.90
2022-09-15T02:45:00.902Z,99.90
2022-09-15T02:47:28.434Z,99.90
2022-09-15T02:49:55.898Z,99.90
2022-09-15T02:52:22.988Z,99.90
2022-09-15T02:54:50.586Z,99.90
2022-09-15T02:57:17.717Z,99.90
2022-09-15T03:00:03.129Z,99.90
2022-09-15T03:02:30.231Z,99.90
2022-09-15T03:04:57.343Z,99.90
2022-09-15T03:07:24.989Z,99.90
2022-09-15T03:09:51.936Z,99.90
2022-09-15T03:12:18.836Z,99.90
2022-09-15T03:14:47.265Z,99.90
2022-09-15T03:17:15.608Z,99.90
2022-09-15T03:19:42.557Z,99.90
2022-09-15T03:22:10.466Z,99.90
2022-09-15T03:24:38.656Z,99.90
2022-09-15T03:27:05.896Z,99.90
2022-09-15T03:29:32.759Z,99.90
2022-09-15T03:31:59.909Z,99.90
2022-09-15T03:34:26.980Z,99.90
2022-09-15T03:36:53.819Z,99.90
2022-09-15T03:39:20.743Z,99.90
2022-09-15T03:41:47.673Z,99.90
2022-09-15T03:44:15.357Z,99.90
2022-09-15T03:46:42.249Z,99.90
2022-09-15T03:49:09.383Z,99.90
2022-09-15T03:51:36.365Z,99.90
2022-09-15T03:54:03.327Z,99.90
2022-09-15T03:56:33.048Z,99.90
2022-09-15T03:59:05.699Z,99.90
2022-09-15T04:01:33.261Z,99.90
2022-09-15T04:04:03.036Z,99.90
2022-09-15T04:06:29.981Z,99.90
2022-09-15T04:08:58.200Z,99.90
2022-09-15T04:11:25.230Z,99.90
2022-09-15T04:13:53.457Z,99.90
2022-09-15T04:16:25.548Z,99.90
2022-09-15T04:18:53.041Z,99.90
2022-09-15T04:21:23.785Z,99.90
2022-09-15T04:23:51.405Z,99.90
2022-09-15T04:26:38.514Z,99.90
2022-09-15T04:29:11.652Z,99.90
2022-09-15T04:31:38.584Z,99.90
2022-09-15T04:34:05.637Z,99.90
2022-09-15T04:36:32.567Z,99.90
2022-09-15T04:38:59.484Z,99.90
2022-09-15T04:41:26.857Z,99.90
2022-09-15T04:43:54.193Z,99.90
2022-09-15T04:46:21.442Z,99.90
2022-09-15T04:48:49.030Z,99.90
2022-09-15T04:51:19.375Z,99.90
2022-09-15T04:53:46.995Z,99.90
2022-09-15T04:56:19.514Z,99.90
2022-09-15T04:58:51.268Z,99.90
2022-09-15T05:01:24.023Z,99.90
2022-09-15T05:03:51.600Z,99.90
2022-09-15T05:06:23.940Z,99.90
2022-09-15T05:08:52.971Z,99.90
2022-09-15T05:11:20.659Z,99.90
2022-09-15T05:18:49.323Z,99.90
2022-09-15T05:21:19.048Z,99.90
2022-09-15T05:31:20.161Z,99.90
2022-09-15T05:33:48.496Z,99.90
2022-09-15T05:36:19.110Z,99.90
2022-09-15T05:38:46.264Z,99.90
2022-09-15T05:41:18.335Z,99.90
2022-09-15T05:43:46.891Z,99.90
2022-09-15T05:46:14.830Z,99.90
2022-09-15T05:48:42.254Z,99.90
2022-09-15T05:51:09.198Z,99.90
2022-09-15T05:53:37.202Z,99.90
2022-09-15T05:56:07.243Z,99.90
2022-09-15T05:58:34.771Z,99.90
2022-09-15T06:01:11.263Z,99.90
2022-09-15T06:03:38.227Z,99.90
2022-09-15T06:06:06.477Z,99.90
2022-09-15T06:08:34.772Z,99.90
2022-09-15T06:11:07.756Z,99.90
2022-09-15T06:13:35.221Z,99.90
2022-09-15T06:16:04.394Z,99.90
2022-09-15T06:18:32.198Z,99.90
2022-09-15T06:21:07.313Z,99.90
2022-09-15T06:23:36.417Z,99.90
2022-09-15T06:26:16.436Z,99.90
2022-09-15T06:28:52.193Z,99.90
2022-09-15T06:31:19.662Z,99.90
2022-09-15T06:36:16.695Z,99.90
2022-09-15T06:38:44.747Z,99.90
2022-09-15T06:41:12.118Z,99.90
2022-09-15T06:43:39.654Z,99.90
2022-09-15T06:46:21.749Z,99.90
2022-09-15T06:48:49.660Z,99.90
2022-09-15T06:53:45.782Z,99.90
2022-09-15T07:01:18.786Z,99.90
2022-09-15T07:03:45.889Z,99.90
2022-09-15T07:06:12.885Z,99.90
2022-09-15T07:08:40.828Z,99.90
2022-09-15T07:11:08.587Z,99.90
2022-09-15T07:13:35.779Z,99.90
2022-09-15T07:16:05.271Z,99.90
2022-09-15T07:18:33.223Z,99.90
2022-09-15T07:23:29.246Z,99.90
2022-09-15T07:26:42.782Z,99.90
2022-09-15T07:29:09.806Z,99.90
2022-09-15T07:31:39.282Z,99.90
2022-09-15T07:34:07.841Z,99.90
2022-09-15T07:36:35.541Z,99.90
2022-09-15T07:39:04.299Z,99.90
2022-09-15T07:44:00.740Z,99.90
2022-09-15T07:46:31.456Z,99.90
2022-09-15T07:48:58.542Z,99.90
2022-09-15T07:51:26.364Z,99.90
2022-09-15T07:53:53.550Z,99.90
2022-09-15T07:56:21.052Z,99.90
2022-09-15T07:58:49.176Z,98.40
2022-09-15T08:01:18.116Z,99.70
2022-09-15T08:03:49.020Z,99.30
2022-09-15T08:06:18.391Z,99.90
2022-09-15T08:08:45.653Z,99.90
2022-09-15T08:11:18.411Z,99.90
2022-09-15T08:13:46.698Z,99.70
2022-09-15T08:16:18.215Z,96.60
2022-09-15T08:18:45.975Z,98.10
2022-09-15T08:21:15.869Z,97.50
2022-09-15T08:23:43.010Z,96.90
2022-09-15T08:26:14.069Z,97.30
2022-09-15T08:28:42.008Z,98.70
2022-09-15T08:31:11.578Z,96.50
2022-09-15T08:33:43.144Z,95.90
2022-09-15T08:36:11.743Z,96.30
2022-09-15T08:38:40.724Z,98.20
2022-09-15T08:41:23.080Z,98.60
2022-09-15T08:44:20.510Z,96.00
2022-09-15T08:47:05.711Z,97.20
2022-09-15T08:49:51.653Z,95.50
2022-09-15T08:52:49.959Z,95.30
2022-09-15T08:55:37.510Z,95.00
2022-09-15T08:58:05.962Z,97.00
2022-09-15T09:00:33.873Z,97.80
2022-09-15T09:03:03.497Z,96.90
2022-09-15T09:05:40.835Z,96.10
2022-09-15T09:08:40.900Z,95.20
2022-09-15T09:11:24.586Z,94.20
2022-09-15T09:13:59.382Z,90.90
2022-09-15T09:16:34.134Z,90.00
2022-09-15T09:19:04.477Z,82.10
2022-09-15T09:21:36.296Z,83.20
2022-09-15T09:24:17.186Z,84.20
2022-09-15T09:29:13.644Z,83.10
2022-09-15T09:37:08.469Z,79.70
2022-09-15T09:39:35.420Z,79.50
2022-09-15T09:42:03.647Z,76.40
2022-09-15T09:44:33.639Z,75.90
2022-09-15T09:47:04.096Z,79.90
2022-09-15T09:49:34.804Z,77.00
2022-09-15T09:52:03.829Z,72.60
2022-09-15T09:54:35.575Z,75.70
2022-09-15T09:57:14.423Z,76.20
2022-09-15T09:59:43.515Z,73.40
2022-09-15T10:02:24.858Z,74.20
2022-09-15T10:05:18.929Z,74.60
2022-09-15T10:07:46.550Z,74.90
2022-09-15T10:10:26.097Z,73.60
2022-09-15T10:12:56.610Z,73.10
2022-09-15T10:15:34.222Z,72.10
2022-09-15T10:18:01.819Z,73.00
2022-09-15T10:20:32.815Z,73.80
2022-09-15T10:23:05.899Z,76.60
2022-09-15T10:25:57.508Z,75.60
2022-09-15T10:28:26.205Z,75.90
2022-09-15T10:31:00.709Z,73.20
2022-09-15T10:33:30.222Z,70.10
2022-09-15T10:36:06.128Z,72.40
2022-09-15T10:38:37.978Z,74.50
2022-09-15T10:41:31.130Z,76.20
2022-09-15T10:43:58.192Z,75.80
2022-09-15T10:46:29.754Z,73.90
2022-09-15T10:49:18.283Z,75.10
2022-09-15T10:52:03.553Z,73.70
2022-09-15T10:54:30.402Z,71.10
2022-09-15T10:57:44.871Z,71.40
2022-09-15T11:00:44.387Z,72.70
2022-09-15T11:03:23.495Z,77.10
2022-09-15T11:06:08.496Z,73.00
2022-09-15T11:09:02.281Z,73.40
2022-09-15T11:11:48.807Z,71.00
2022-09-15T11:14:37.453Z,72.80
2022-09-15T11:17:13.209Z,72.00
2022-09-15T11:20:39.477Z,74.50
2022-09-15T11:23:24.400Z,76.70
2022-09-15T11:25:58.793Z,73.40
2022-09-15T11:28:35.277Z,74.10
2022-09-15T11:31:20.367Z,72.20
2022-09-15T11:33:58.349Z,73.90
2022-09-15T11:36:49.410Z,72.30
2022-09-15T11:39:30.620Z,71.60
2022-09-15T11:42:21.773Z,72.00
2022-09-15T11:44:49.619Z,72.10
2022-09-15T11:47:22.277Z,73.30
2022-09-15T11:50:10.109Z,71.40
2022-09-15T11:52:55.367Z,70.20
2022-09-15T11:56:00.638Z,72.30
2022-09-15T11:58:48.946Z,71.10
2022-09-15T12:01:25.167Z,70.60
2022-09-15T12:04:03.205Z,70.50
2022-09-15T12:06:55.288Z,70.00
2022-09-15T12:09:22.560Z,71.30
2022-09-15T12:12:00.433Z,70.60
2022-09-15T12:14:37.708Z,70.60
2022-09-15T12:17:08.028Z,71.90
2022-09-15T12:19:48.862Z,70.90
2022-09-15T12:22:25.083Z,72.90
2022-09-15T12:25:01.624Z,72.60
2022-09-15T12:27:28.734Z,74.00
2022-09-15T12:30:00.825Z,70.90
2022-09-15T12:32:40.435Z,71.30
2022-09-15T12:35:16.102Z,73.40
2022-09-15T12:37:46.796Z,72.90
2022-09-15T12:40:26.471Z,74.50
2022-09-15T12:42:54.061Z,70.50
2022-09-15T12:45:27.448Z,70.00
2022-09-15T12:48:03.871Z,71.80
2022-09-15T12:50:39.379Z,72.50
2022-09-15T12:53:12.453Z,72.40
2022-09-15T12:55:55.425Z,73.80
2022-09-15T12:58:37.043Z,73.10
2022-09-15T13:01:19.772Z,74.30
2022-09-15T13:03:47.594Z,76.90
2022-09-15T13:06:34.402Z,77.60
2022-09-15T13:09:05.607Z,77.80
2022-09-15T13:11:38.450Z,75.00
2022-09-15T13:14:08.197Z,74.70
2022-09-15T13:16:41.271Z,76.20
2022-09-15T13:19:33.391Z,76.90
2022-09-15T13:22:12.308Z,74.20
2022-09-15T13:25:14.825Z,75.10
2022-09-15T13:27:52.105Z,76.40
2022-09-15T13:30:47.195Z,77.30
2022-09-15T13:40:17.817Z,74.90
2022-09-15T13:42:57.654Z,76.50
2022-09-15T13:45:43.471Z,79.00
2022-09-15T13:48:33.533Z,77.80
2022-09-15T13:51:06.072Z,77.60
2022-09-15T13:53:50.801Z,80.80
2022-09-15T13:56:32.783Z,81.70
2022-09-15T13:59:14.061Z,84.70
2022-09-15T14:01:42.547Z,81.40
2022-09-15T14:04:19.352Z,87.00
2022-09-15T14:06:49.337Z,87.50
2022-09-15T14:09:39.702Z,85.20
2022-09-15T14:12:10.554Z,89.30
2022-09-15T14:14:55.452Z,90.40
2022-09-15T14:17:28.858Z,89.00
2022-09-15T14:19:58.317Z,90.50
2022-09-15T14:22:28.257Z,89.80
2022-09-15T14:24:57.314Z,90.80
2022-09-15T14:27:30.202Z,87.80
2022-09-15T14:29:58.716Z,89.60
2022-09-15T14:32:28.020Z,89.90
2022-09-15T14:34:58.998Z,88.10
2022-09-15T14:37:31.701Z,88.40
2022-09-15T14:40:00.763Z,87.00
2022-09-15T14:42:33.450Z,87.40
2022-09-15T14:48:06.239Z,88.90
2022-09-15T14:50:33.859Z,90.80
2022-09-15T14:53:07.133Z,92.90
2022-09-15T14:55:39.245Z,92.80
2022-09-15T14:58:27.351Z,94.30
2022-09-15T15:00:57.820Z,95.40
2022-09-15T15:03:44.245Z,95.90
2022-09-15T15:06:30.085Z,97.00
2022-09-15T15:09:16.390Z,96.80
2022-09-15T15:11:44.666Z,97.60
2022-09-15T15:14:13.679Z,98.60
2022-09-15T15:16:53.356Z,99.60
2022-09-15T15:19:42.007Z,99.90
2022-09-15T15:22:15.583Z,99.90
2022-09-15T15:24:48.919Z,99.90
2022-09-15T15:27:24.618Z,99.90
2022-09-15T15:29:53.047Z,99.90
2022-09-15T15:32:26.614Z,99.90
2022-09-15T15:35:01.206Z,99.90
2022-09-15T15:37:34.456Z,99.90
2022-09-15T15:40:06.857Z,99.90
2022-09-15T15:42:34.635Z,99.90
2022-09-15T15:45:14.311Z,99.90
2022-09-15T15:47:42.155Z,99.90
2022-09-15T15:50:15.066Z,99.90
2022-09-15T15:52:42.833Z,99.90
2022-09-15T15:55:19.027Z,99.90
2022-09-15T16:00:26.987Z,99.90
2022-09-15T16:02:54.285Z,99.90
2022-09-15T16:05:25.481Z,99.90
2022-09-15T16:07:56.224Z,99.90
2022-09-15T16:12:52.196Z,99.90
2022-09-15T16:15:21.100Z,99.90
2022-09-15T16:17:50.311Z,99.90
2022-09-15T16:22:47.363Z,99.90
2022-09-15T16:25:23.446Z,99.90
2022-09-15T16:27:51.002Z,99.90
2022-09-15T16:32:50.925Z,99.90
2022-09-15T16:35:44.318Z,99.90
2022-09-15T16:38:14.143Z,99.90
2022-09-15T16:40:41.612Z,99.90
2022-09-15T16:43:14.068Z,99.90
2022-09-15T16:45:41.429Z,99.90
2022-09-15T16:48:11.995Z,99.90
2022-09-15T16:50:50.283Z,99.90
2022-09-15T16:53:30.989Z,99.90
2022-09-15T16:55:59.554Z,99.90
2022-09-15T16:58:27.682Z,99.90
2022-09-15T17:00:56.905Z,99.90
2022-09-15T17:03:27.000Z,99.90
2022-09-15T17:06:03.074Z,99.90
2022-09-15T17:08:32.964Z,99.90
2022-09-15T17:13:30.534Z,99.90
2022-09-15T17:16:01.304Z,99.90
2022-09-15T17:18:28.739Z,99.90
2022-09-15T17:20:56.888Z,99.90
2022-09-15T17:23:31.197Z,99.90
2022-09-15T17:26:12.233Z,99.90
2022-09-15T17:28:42.306Z,99.90
2022-09-15T17:31:13.754Z,99.90
2022-09-15T17:38:36.706Z,99.90
2022-09-15T17:41:03.626Z,99.90
2022-09-15T17:43:32.031Z,99.90
2022-09-15T17:45:59.239Z,99.90
2022-09-15T17:48:26.528Z,99.90
2022-09-15T17:50:53.638Z,99.90
2022-09-15T17:53:22.954Z,99.90
2022-09-15T17:55:54.710Z,99.90
2022-09-15T17:58:23.244Z,99.90
2022-09-15T18:00:50.871Z,99.90
2022-09-15T18:03:28.251Z,99.90
2022-09-15T18:05:59.955Z,99.90
2022-09-15T18:08:28.482Z,99.90
2022-09-15T18:10:55.792Z,99.90
2022-09-15T18:13:31.144Z,99.90
2022-09-15T18:16:07.892Z,99.90
2022-09-15T18:18:36.367Z,99.90
2022-09-15T18:21:11.158Z,99.90
2022-09-15T18:23:39.200Z,99.90
2022-09-15T18:26:06.255Z,99.90
2022-09-15T18:28:33.215Z,99.90
2022-09-15T18:31:00.321Z,99.90
2022-09-15T18:33:27.257Z,99.90
2022-09-15T18:35:56.432Z,99.90
2022-09-15T18:38:24.195Z,99.90
2022-09-15T18:40:55.256Z,99.90
2022-09-15T18:45:50.417Z,99.90
2022-09-15T18:48:17.512Z,99.90
2022-09-15T18:50:45.274Z,99.90
2022-09-15T18:53:12.924Z,99.90
2022-09-15T18:55:43.821Z,99.90
2022-09-15T18:58:11.948Z,99.90
2022-09-15T19:00:39.242Z,99.90
2022-09-15T19:03:09.848Z,99.90
2022-09-15T19:05:39.972Z,99.90
2022-09-15T19:08:09.469Z,99.90
2022-09-15T19:10:38.457Z,99.90
2022-09-15T19:15:34.737Z,99.90
2022-09-15T19:18:02.178Z,99.90
2022-09-15T19:20:29.395Z,99.90
2022-09-15T19:25:24.664Z,99.90
2022-09-15T19:27:51.558Z,99.90
2022-09-15T19:32:46.020Z,99.90
2022-09-15T19:35:13.176Z,99.90
2022-09-15T19:37:41.553Z,99.90
2022-09-15T19:40:13.673Z,99.90
2022-09-15T19:42:42.890Z,99.90
2022-09-15T19:45:11.259Z,99.90
2022-09-15T19:47:39.354Z,99.90
2022-09-15T19:50:08.774Z,99.90
2022-09-15T19:52:35.975Z,99.90
2022-09-15T19:55:03.537Z,99.90
2022-09-15T19:57:30.645Z,99.90
2022-09-15T19:59:57.629Z,99.90
2022-09-15T20:02:24.548Z,99.90
2022-09-15T20:07:35.893Z,99.90
2022-09-15T20:10:03.282Z,99.90
2022-09-15T20:12:31.255Z,99.90
2022-09-15T20:14:58.170Z,99.90
2022-09-15T20:17:25.141Z,99.90
2022-09-15T20:19:52.069Z,99.90
2022-09-15T20:22:18.985Z,99.90
2022-09-15T20:24:45.996Z,99.90
2022-09-15T20:27:12.889Z,99.90
2022-09-15T20:29:40.385Z,99.90
2022-09-15T20:32:07.415Z,99.90
2022-09-15T20:34:34.340Z,99.90
2022-09-15T20:37:01.287Z,99.90
2022-09-15T20:39:29.062Z,99.90
2022-09-15T20:41:57.756Z,99.90
2022-09-15T20:44:24.818Z,99.90
2022-09-15T20:46:51.863Z,99.90
2022-09-15T20:49:18.898Z,99.90
2022-09-15T20:51:46.001Z,99.90
2022-09-15T20:54:12.863Z,99.90
2022-09-15T20:56:40.495Z,99.90
2022-09-15T20:59:10.755Z,99.90
2022-09-15T21:01:38.959Z,99.90
2022-09-15T21:04:08.271Z,99.90
2022-09-15T21:06:35.993Z,99.90
2022-09-15T21:09:03.850Z,99.90
2022-09-15T21:11:31.071Z,99.90
2022-09-15T21:13:58.848Z,99.90
2022-09-15T21:16:28.258Z,99.90
2022-09-15T21:18:57.803Z,99.90
2022-09-15T21:21:30.277Z,99.90
2022-09-15T21:24:04.085Z,99.90
2022-09-15T21:26:33.679Z,99.90
2022-09-15T21:29:01.382Z,99.90
2022-09-15T21:31:30.842Z,99.90
2022-09-15T21:33:59.271Z,99.90
2022-09-15T21:36:31.018Z,99.90
2022-09-15T21:38:59.348Z,99.90
2022-09-15T21:41:29.829Z,99.90
2022-09-15T21:43:59.024Z,99.90
2022-09-15T21:46:28.621Z,99.90
2022-09-15T21:48:57.648Z,99.90
2022-09-15T21:51:26.125Z,99.90
2022-09-15T21:53:54.407Z,99.90
2022-09-15T21:56:22.158Z,99.90
2022-09-15T21:58:49.351Z,99.90
2022-09-15T22:01:21.107Z,99.90
2022-09-15T22:03:53.393Z,99.90
2022-09-15T22:06:27.520Z,99.90
2022-09-15T22:08:55.505Z,99.90
2022-09-15T22:11:23.299Z,99.90
2022-09-15T22:13:50.297Z,99.90
2022-09-15T22:16:19.618Z,99.90
2022-09-15T22:18:46.913Z,99.90
2022-09-15T22:21:18.411Z,99.90
2022-09-15T22:23:47.118Z,99.90
2022-09-15T22:26:17.024Z,99.90
2022-09-15T22:28:43.896Z,99.90
2022-09-15T22:31:13.019Z,99.90
2022-09-15T22:33:41.345Z,99.90
2022-09-15T22:36:17.314Z,99.90
2022-09-15T22:38:45.443Z,99.90
2022-09-15T22:41:15.640Z,99.90
2022-09-15T22:46:11.377Z,99.90
2022-09-15T22:48:43.073Z,99.90
2022-09-15T22:51:11.321Z,99.90
2022-09-15T22:53:38.591Z,99.90
2022-09-15T22:56:14.733Z,99.90
2022-09-15T22:58:44.021Z,99.90
2022-09-15T23:01:17.166Z,99.90
2022-09-15T23:03:47.761Z,99.90
2022-09-15T23:08:41.975Z,99.90
2022-09-15T23:11:14.342Z,99.90
2022-09-15T23:13:42.361Z,99.90
2022-09-15T23:16:10.145Z,99.90
2022-09-15T23:18:38.040Z,99.90
2022-09-15T23:21:08.303Z,99.90
2022-09-15T23:23:40.166Z,99.90
2022-09-15T23:26:10.184Z,99.90
2022-09-15T23:28:39.279Z,99.90
2022-09-15T23:31:07.623Z,99.90
2022-09-15T23:33:34.995Z,99.90
2022-09-15T23:36:04.466Z,99.90
2022-09-15T23:38:31.850Z,99.90
2022-09-15T23:40:58.764Z,99.90
2022-09-15T23:43:25.720Z,99.90
2022-09-15T23:45:53.686Z,99.90
2022-09-15T23:48:20.935Z,99.90
2022-09-15T23:50:48.076Z,99.90
2022-09-15T23:53:14.992Z,99.90
2022-09-15T23:55:41.863Z,99.90
2022-09-15T23:58:08.922Z,99.90
